Airfield :







YOU CAN JOIN US ON...

 
LOGIN :

Register | Disclaimer

   EN    FR    IT 

 









Legend :    VFR   Marginal VFR   IFR   Intensive IFR   Very Intensive IFR
Visi :
Ceiling :
>= 8 km
>= 3000ft
5 to 8 km
1000 to 3000 ft
1500m to 5 km
500 to 1000 ft
800 to 1500m
200 to 500 ft
< 800m
< 200 ft
Symbols :   Thunderstorms  Fog  Heavy snow  Heavy precipitations  Wind > 20 kt







- Airport Elevation : 534 ft
- IATA code : PQI


KPQI - Northern Maine Regional Arpt At Presque Isle

CURRENT METAR :
  • 262317Z AUTO 16011G19KT 10SM OVC013 16/14 A3008 RMK AO2

EXPIRED METARs :
  • 262256Z AUTO 16013G18KT 10SM OVC015 17/14 A3008 RMK AO2 SLP211 T01670139
  • 262156Z AUTO 16010G20KT 10SM OVC015 17/14 A3007 RMK AO2 SLP208 T01670139
  • 262056Z AUTO 16008KT 10SM OVC011 16/14 A3008 RMK AO2 SLP211 T01610144 53001

TAF KPQI
Valid from the 27 at 00:00 until the 28 at 00:00 UTC


262328Z 2700/2724 16010G17KT P6SM OVC012
FM270300 15007KT P6SM VCSH OVC008
FM270600 16006KT 3SM BR VCSH OVC005
FM271300 16007KT P6SM OVC008
FM271600 16007KT P6SM OVC014
FM272000 16008KT P6SM VCSH OVC022
KZBW FIR / North America



MET'MAP, your aeronautical weather chart ! - Copyright ORBIFLY December 2007 - Disclaimer

ORBIFLY MET'MAP TEAM :

Programming & Development : Alexandra Zaïnal
Concept & Development : Baudouin d'Aumeries
Co-Development & Prog : Marc-Olivier Méhu
Technical & hardware support : Manuel Goepfert

Contact : metmap@orbifly.com




SOURCES & CREDITS :

   NOAA